Latest Weather Observations for Gannett Cay

IDQ60801

Issued at 8:32 pm EST Thursday 29 June 2017 (issued every 30 minutes, with the page automatically refreshed every 10 minutes)

About weather observations | Map of weather stations | Latest weather observations for QLD | Other Formats
Station Details ID: 200831 Name: GANNET CAY Lat: -21.98 Lon: 152.47 Height: 2.3 m
Data from the previous 72 hours. | See also: Recent months for locations in Queensland
Date/Time
EST
Temp
°C
App
Temp
°C
Dew
Point
°C
Rel
Hum
%
Delta-T
°C
Wind Press
QNH
hPa
Press
MSL
hPa
Rain since
9am
mm
Dir  Spd
km/h
Gust
km/h
Spd
kts
Gust
kts
29/08:30pm 23.1 - - - - NE 22 24 12 13 1019.6 - -
29/08:00pm 23.1 - - - - NE 24 26 13 14 1019.6 - -
29/07:30pm 23.3 - - - - NE 22 24 12 13 1019.5 - -
29/07:29pm 23.2 - - - - NE 22 - 12 - - 1019.5 -
29/07:00pm 23.3 - - - - NE 20 26 11 14 1019.3 - -
29/06:30pm 23.2 - - - - ENE 20 24 11 13 1019.0 - -
29/06:29pm 23.2 - - - - ENE 20 - 11 - - 1019.1 -
29/06:00pm 23.2 - - - - ENE 22 26 12 14 1018.7 - -
29/05:30pm 23.2 - - - - ENE 22 26 12 14 1018.5 - -
29/05:29pm 23.2 - - - - ENE 22 - 12 - - 1018.5 -
29/05:00pm 23.2 - - - - ENE 22 26 12 14 1018.3 - -
29/04:30pm 23.3 - - - - ENE 24 28 13 15 1018.1 - -
29/04:29pm 23.3 - - - - ENE 24 - 13 - - 1018.2 -
29/04:00pm 23.3 - - - - NE 24 28 13 15 1017.8 - -
29/03:30pm 23.2 - - - - ENE 24 26 13 14 1017.7 - -
29/03:29pm 23.1 - - - - ENE 24 - 13 - - 1017.8 -
29/03:00pm 23.0 - - - - ENE 26 32 14 17 1017.5 - -
29/02:30pm 23.0 - - - - ENE 30 33 16 18 1017.5 - -
29/02:29pm 22.8 - - - - ENE 30 - 16 - - 1017.6 -
29/02:00pm 22.8 - - - - E 30 33 16 18 1017.6 - -
29/01:30pm 22.9 - - - - ENE 26 30 14 16 1017.9 - -
29/01:29pm 23.1 - - - - ENE 26 - 14 - - 1018.0 -
29/01:00pm 23.1 - - - - E 28 33 15 18 1018.1 - -
29/12:30pm 23.0 - - - - E 28 32 15 17 1018.4 - -
29/12:29pm 22.9 - - - - E 28 - 15 - - 1018.5 -
29/12:00pm 22.8 - - - - E 28 32 15 17 1019.0 - -
29/11:30am 23.0 - - - - E 28 35 15 19 1019.7 - -
29/11:29am 23.0 - - - - E 28 - 15 - - 1019.8 -
29/11:00am 23.2 - - - - ENE 30 33 16 18 1020.1 - -
29/10:30am 23.1 - - - - ENE 32 35 17 19 1020.3 - -
29/10:29am 23.1 - - - - ENE 32 - 17 - - 1020.4 -
29/10:00am 23.2 - - - - ENE 32 37 17 20 1020.5 - -
29/09:30am 23.2 - - - - ENE 33 37 18 20 1020.2 - -
29/09:29am 23.2 - - - - ENE 33 - 18 - - 1020.3 -
29/09:00am 23.4 - - - - E 33 37 18 20 1020.3 - -
29/08:30am 23.3 - - - - E 33 39 18 21 1020.2 - -
29/08:29am 23.1 - - - - E 33 - 18 - - 1020.2 -
29/08:00am 23.1 - - - - E 35 41 19 22 1020.2 - -
29/07:30am 23.1 - - - - E 33 39 18 21 1020.1 - -
29/07:29am 23.1 - - - - E 33 - 18 - - 1020.2 -
29/07:00am 22.9 - - - - E 33 39 18 21 1019.9 - -
29/06:30am 22.7 - - - - E 33 39 18 21 1019.9 - -
29/06:29am 22.7 - - - - E 33 - 18 - - 1020.0 -
29/06:00am 22.7 - - - - E 33 39 18 21 1019.9 - -
29/05:30am 22.6 - - - - E 35 41 19 22 1019.5 - -
29/05:29am 22.6 - - - - E 35 - 19 - - 1019.6 -
29/05:00am 22.6 - - - - E 33 39 18 21 1019.4 - -
29/04:30am 22.5 - - - - E 35 39 19 21 1019.2 - -
29/04:29am 22.5 - - - - E 35 - 19 - - 1019.4 -
29/04:00am 22.5 - - - - E 35 41 19 22 1019.4 - -
29/03:30am 22.5 - - - - ESE 37 43 20 23 1019.5 - -
29/03:29am 22.6 - - - - ESE 37 - 20 - - 1019.6 -
29/03:00am 22.6 - - - - E 35 41 19 22 1019.6 - -
29/02:30am 22.6 - - - - E 35 43 19 23 1019.7 - -
29/02:29am 22.6 - - - - E 35 - 19 - - 1019.8 -
29/02:00am 22.6 - - - - E 37 43 20 23 1019.9 - -
29/01:30am 22.6 - - - - E 37 43 20 23 1020.1 - -
29/01:29am 22.6 - - - - E 37 - 20 - - 1020.2 -
29/01:00am 22.7 - - - - E 35 39 19 21 1020.3 - -
29/12:30am 22.7 - - - - E 35 41 19 22 1020.7 - -
29/12:29am 22.7 - - - - E 35 - 19 - - 1020.8 -
29/12:00am 22.7 - - - - E 37 43 20 23 1020.8 - -
 
Date/Time
EST
Temp
°C
App
Temp
°C
Dew
Point
°C
Rel
Hum
%
Delta-T
°C
Wind Press
QNH
hPa
Press
MSL
hPa
Rain since
9am
mm
Dir  Spd
km/h
Gust
km/h
Spd
kts
Gust
kts
28/11:30pm 22.8 - - - - E 39 46 21 25 1020.9 - -
28/11:29pm 22.7 - - - - E 39 - 21 - - 1021.0 -
28/11:00pm 22.8 - - - - E 37 43 20 23 1021.3 - -
28/10:30pm 22.7 - - - - E 37 44 20 24 1021.4 - -
28/10:29pm 22.8 - - - - E 37 - 20 - - 1021.5 -
28/10:00pm 22.8 - - - - E 39 43 21 23 1021.4 - -
28/09:30pm 22.9 - - - - E 39 46 21 25 1021.3 - -
28/09:29pm 22.8 - - - - E 39 - 21 - - 1021.4 -
28/09:00pm 22.9 - - - - E 41 46 22 25 1021.4 - -
28/08:30pm 22.9 - - - - ESE 39 44 21 24 1021.3 - -
28/08:29pm 22.9 - - - - ESE 39 - 21 - - 1021.4 -
28/08:00pm 22.9 - - - - ESE 41 46 22 25 1021.1 - -
28/07:30pm 23.0 - - - - ESE 41 48 22 26 1020.7 - -
28/07:29pm 22.9 - - - - ESE 43 - 23 - - 1020.8 -
28/07:00pm 22.9 - - - - ESE 43 46 23 25 1020.6 - -
28/06:30pm 23.0 - - - - ESE 41 44 22 24 1020.4 - -
28/06:29pm 23.0 - - - - ESE 41 - 22 - - 1020.5 -
28/06:00pm 23.0 - - - - ESE 39 44 21 24 1020.1 - -
28/05:30pm 23.1 - - - - ESE 35 43 19 23 1019.9 - -
28/05:29pm 23.0 - - - - ESE 37 - 20 - - 1020.0 -
28/05:00pm 22.2 - - - - ESE 33 41 18 22 1019.9 - -
28/04:30pm 23.0 - - - - ESE 35 41 19 22 1019.7 - -
28/04:29pm 22.9 - - - - ESE 35 - 19 - - 1019.8 -
28/04:00pm 22.6 - - - - ESE 33 39 18 21 1019.6 - -
28/03:30pm 23.4 - - - - ESE 32 39 17 21 1019.4 - -
28/03:29pm 23.5 - - - - ESE 32 - 17 - - 1019.5 -
28/03:00pm 23.3 - - - - E 33 39 18 21 1019.2 - -
28/02:30pm 23.1 - - - - E 28 32 15 17 1019.2 - -
28/02:29pm 23.1 - - - - E 28 - 15 - - 1019.3 -
28/02:00pm 23.1 - - - - E 32 37 17 20 1019.2 - -
28/01:30pm 23.6 - - - - E 30 33 16 18 1019.4 - -
28/01:29pm 23.6 - - - - E 30 - 16 - - 1019.5 -
28/01:00pm 23.7 - - - - E 32 37 17 20 1019.7 - -
28/12:30pm 23.4 - - - - E 28 33 15 18 1020.0 - -
28/12:29pm 23.4 - - - - E 30 - 16 - - 1020.1 -
28/12:00pm 23.4 - - - - E 30 35 16 19 1020.2 - -
28/11:30am 23.4 - - - - E 30 39 16 21 1020.8 - -
28/11:29am 23.4 - - - - E 30 - 16 - - 1020.9 -
28/11:00am 23.5 - - - - E 33 41 18 22 1021.1 - -
28/10:30am 23.5 - - - - E 30 33 16 18 1021.4 - -
28/10:29am 23.5 - - - - E 30 - 16 - - 1021.5 -
28/10:00am 23.4 - - - - E 30 35 16 19 1021.5 - -
28/09:30am 23.4 - - - - E 32 37 17 20 1021.5 - -
28/09:29am 23.5 - - - - E 32 - 17 - - 1021.5 -
28/09:00am 23.4 - - - - E 32 39 17 21 1021.5 - -
28/08:30am 23.5 - - - - E 33 39 18 21 1021.3 - -
28/08:29am 23.3 - - - - E 33 - 18 - - 1021.3 -
28/08:00am 23.2 - - - - E 33 37 18 20 1021.1 - -
28/07:30am 23.1 - - - - E 32 37 17 20 1020.9 - -
28/07:29am 23.1 - - - - E 32 - 17 - - 1021.0 -
28/07:00am 23.0 - - - - E 32 35 17 19 1020.6 - -
28/06:30am 22.9 - - - - E 32 35 17 19 1020.4 - -
28/06:29am 22.8 - - - - E 32 - 17 - - 1020.5 -
28/06:00am 22.9 - - - - E 32 35 17 19 1020.3 - -
28/05:30am 23.0 - - - - E 33 37 18 20 1020.1 - -
28/05:29am 22.9 - - - - E 33 - 18 - - 1020.2 -
28/05:00am 23.0 - - - - E 33 35 18 19 1019.9 - -
28/04:30am 22.9 - - - - E 32 37 17 20 1019.9 - -
28/04:29am 22.9 - - - - E 32 - 17 - - 1020.0 -
28/04:00am 23.0 - - - - E 35 39 19 21 1019.9 - -
28/03:30am 22.9 - - - - E 33 39 18 21 1020.0 - -
28/03:29am 23.0 - - - - E 33 - 18 - - 1020.1 -
28/03:00am 23.0 - - - - ENE 33 37 18 20 1020.1 - -
28/02:30am 23.1 - - - - ENE 32 39 17 21 1020.1 - -
28/02:29am 23.0 - - - - ENE 32 - 17 - - 1020.2 -
28/02:00am 22.2 - - - - E 28 37 15 20 1020.3 - -
28/01:30am 22.8 - - - - E 35 39 19 21 1020.7 - -
28/01:29am 22.8 - - - - E 35 - 19 - - 1020.8 -
28/01:00am 23.0 - - - - E 30 35 16 19 1020.8 - -
28/12:30am 23.1 - - - - E 33 37 18 20 1021.1 - -
28/12:29am 23.0 - - - - E 33 - 18 - - 1021.2 -
28/12:00am 23.1 - - - - E 32 37 17 20 1021.2 - -
 
Date/Time
EST
Temp
°C
App
Temp
°C
Dew
Point
°C
Rel
Hum
%
Delta-T
°C
Wind Press
QNH
hPa
Press
MSL
hPa
Rain since
9am
mm
Dir  Spd
km/h
Gust
km/h
Spd
kts
Gust
kts
27/11:30pm 23.1 - - - - E 33 39 18 21 1021.2 - -
27/11:29pm 23.1 - - - - E 33 - 18 - - 1021.3 -
27/11:00pm 23.1 - - - - E 35 39 19 21 1021.4 - -
27/10:30pm 23.0 - - - - E 33 39 18 21 1021.6 - -
27/10:29pm 23.0 - - - - E 33 - 18 - - 1021.7 -
27/10:00pm 23.0 - - - - E 35 41 19 22 1021.6 - -
27/09:30pm 23.1 - - - - E 35 43 19 23 1021.9 - -
27/09:29pm 23.0 - - - - E 37 - 20 - - 1022.0 -
27/09:00pm 23.1 - - - - E 37 43 20 23 1021.7 - -
27/08:30pm 23.1 - - - - E 39 44 21 24 1021.7 - -
27/08:29pm 23.1 - - - - E 37 - 20 - - 1021.7 -
27/08:00pm 23.1 - - - - ESE 37 44 20 24 1021.5 - -
27/07:30pm 23.0 - - - - E 35 43 19 23 1021.4 - -
27/07:29pm 23.0 - - - - E 35 - 19 - - 1021.4 -
27/07:00pm 23.0 - - - - ESE 35 41 19 22 1021.3 - -
27/06:30pm 23.0 - - - - E 33 39 18 21 1021.1 - -
27/06:29pm 23.0 - - - - E 33 - 18 - - 1021.2 -
27/06:00pm 23.0 - - - - E 35 41 19 22 1020.8 - -
27/05:30pm 22.9 - - - - ESE 35 41 19 22 1020.6 - -
27/05:29pm 22.9 - - - - ESE 35 - 19 - - 1020.7 -
27/05:00pm 23.0 - - - - ESE 35 43 19 23 1020.3 - -
27/04:30pm 23.1 - - - - E 37 41 20 22 1020.0 - -
27/04:29pm 23.2 - - - - E 37 - 20 - - 1020.2 -
27/04:00pm 23.2 - - - - E 35 41 19 22 1019.8 - -
27/03:30pm 23.3 - - - - E 37 43 20 23 1019.6 - -
27/03:29pm 23.3 - - - - E 37 - 20 - - 1019.7 -
27/03:00pm 23.2 - - - - E 35 41 19 22 1019.4 - -
27/02:30pm 23.4 - - - - E 35 39 19 21 1019.6 - -
27/02:29pm 23.3 - - - - E 35 - 19 - - 1019.7 -
27/02:00pm 23.2 - - - - E 35 41 19 22 1019.7 - -
27/01:30pm 23.4 - - - - E 35 41 19 22 1020.0 - -
27/01:29pm 23.3 - - - - E 35 - 19 - - 1020.0 -
27/01:00pm 23.3 - - - - E 32 37 17 20 1020.4 - -
27/12:30pm 23.3 - - - - ESE 33 39 18 21 1020.7 - -
27/12:29pm 23.3 - - - - ESE 33 - 18 - - 1020.8 -
27/12:00pm 23.3 - - - - ESE 35 39 19 21 1021.1 - -
27/11:30am 23.2 - - - - ESE 35 41 19 22 1021.4 - -
27/11:29am 23.2 - - - - ESE 35 - 19 - - 1021.5 -
27/11:00am 22.9 - - - - ESE 35 41 19 22 1021.6 - -
27/10:30am 23.0 - - - - SE 35 39 19 21 1021.8 - -
27/10:29am 23.0 - - - - SE 35 - 19 - - 1021.9 -
27/10:00am 23.1 - - - - ESE 35 39 19 21 1021.9 - -
27/09:30am 22.9 - - - - SE 35 41 19 22 1021.7 - -
27/09:29am 22.9 - - - - SE 35 - 19 - - 1021.8 -
27/09:00am 22.9 - - - - ESE 33 39 18 21 1021.5 - -
27/08:30am 22.8 - - - - SE 33 39 18 21 1021.3 - -
27/08:29am 22.9 - - - - SE 33 - 18 - - 1021.4 -
27/08:00am 22.7 - - - - ESE 33 39 18 21 1021.0 - -
27/07:30am 22.8 - - - - ESE 32 35 17 19 1020.7 - -
27/07:29am 22.7 - - - - ESE 33 - 18 - - 1020.8 -
27/07:00am 22.5 - - - - ESE 35 39 19 21 1020.3 - -
27/06:30am 22.5 - - - - ESE 35 39 19 21 1020.0 - -
27/06:29am 22.4 - - - - SE 35 - 19 - - 1020.1 -
27/06:00am 22.5 - - - - ESE 35 39 19 21 1019.9 - -
27/05:30am 22.5 - - - - ESE 32 37 17 20 1019.9 - -
27/05:29am 22.6 - - - - ESE 32 - 17 - - 1020.0 -
27/05:00am 22.5 - - - - SE 32 37 17 20 1019.7 - -
27/04:30am 22.6 - - - - ESE 33 37 18 20 1019.5 - -
27/04:29am 22.6 - - - - ESE 33 - 18 - - 1019.6 -
27/04:00am 22.6 - - - - ESE 33 37 18 20 1019.7 - -
27/03:30am 22.5 - - - - ESE 32 35 17 19 1019.7 - -
27/03:29am 22.6 - - - - ESE 32 - 17 - - 1019.8 -
27/03:00am 22.6 - - - - ESE 33 37 18 20 1019.7 - -
27/02:30am 22.6 - - - - ESE 32 37 17 20 1019.8 - -
27/02:29am 22.6 - - - - ESE 32 - 17 - - 1019.9 -
27/02:00am 22.7 - - - - ESE 32 35 17 19 1020.0 - -
27/01:30am 22.7 - - - - ESE 32 35 17 19 1020.0 - -
27/01:29am 22.7 - - - - ESE 32 - 17 - - 1020.1 -
27/01:00am 22.7 - - - - ESE 28 33 15 18 1020.1 - -
27/12:30am 22.7 - - - - SE 32 35 17 19 1020.4 - -
27/12:29am 22.8 - - - - SE 32 - 17 - - 1020.5 -
27/12:00am 22.7 - - - - ESE 30 35 16 19 1020.3 - -
 
Date/Time
EST
Temp
°C
App
Temp
°C
Dew
Point
°C
Rel
Hum
%
Delta-T
°C
Wind Press
QNH
hPa
Press
MSL
hPa
Rain since
9am
mm
Dir  Spd
km/h
Gust
km/h
Spd
kts
Gust
kts
26/11:30pm 22.9 - - - - ESE 30 33 16 18 1020.4 - -
26/11:29pm 22.9 - - - - ESE 30 - 16 - - 1020.6 -
26/11:00pm 23.0 - - - - SE 30 35 16 19 1020.5 - -
26/10:30pm 23.0 - - - - SE 32 35 17 19 1020.7 - -
26/10:29pm 23.0 - - - - SE 32 - 17 - - 1020.8 -
26/10:00pm 23.0 - - - - SE 30 35 16 19 1020.5 - -
26/09:30pm 22.8 - - - - SE 30 33 16 18 1020.4 - -
26/09:29pm 22.9 - - - - SE 30 - 16 - - 1020.5 -
26/09:00pm 22.7 - - - - SE 24 30 13 16 1020.4 - -

Other Formats:

Comma delimited format used in spreadsheet applications
http://www.bom.gov.au/fwo/IDQ60801/IDQ60801.94379.axf

JavaScript Object Notation format (JSON) in row-major order
http://www.bom.gov.au/fwo/IDQ60801/IDQ60801.94379.json